Time;durP1;ratioP1;P1;durP2;ratioP2;P2;SDS_P1;SDS_P2;PMS_P1;PMS_P2;Temp;Humidity;BMP_temperature;BMP_pressure;BME280_temperature;BME280_humidity;BME280_pressure;Samples;Min_cycle;Max_cycle;Signal;HPM_P1;HPM_P2
2022/02/23 00:04:49;;;;;;;14.00;5.13;;;;;;;;;;10537046;28;20040;-65
2022/02/23 00:09:49;;;;;;;13.03;5.77;;;;;;;;;;10537392;28;20441;-65
2022/02/23 00:14:49;;;;;;;9.30;5.00;;;;;;;;;;10537349;28;20452;-65
2022/02/23 00:19:50;;;;;;;16.63;6.13;;;;;;;;;;10536979;28;20475;-65
2022/02/23 00:24:50;;;;;;;13.25;5.90;;;;;;;;;;10536506;28;20453;-65
2022/02/23 00:29:53;;;;;;;15.30;5.75;;;;;;;;;;10537108;28;20044;-65
2022/02/23 00:34:53;;;;;;;8.65;5.15;;;;;;;;;;10536867;28;20364;-65
2022/02/23 00:39:54;;;;;;;11.00;5.77;;;;;;;;;;10536363;28;20023;-66
2022/02/23 00:44:54;;;;;;;9.82;5.38;;;;;;;;;;10536725;28;20497;-64
2022/02/23 00:49:55;;;;;;;12.00;5.73;;;;;;;;;;10536200;28;20020;-64
2022/02/23 00:54:55;;;;;;;12.00;5.53;;;;;;;;;;10536120;28;20108;-64
2022/02/23 00:59:57;;;;;;;12.63;6.33;;;;;;;;;;10535436;28;20047;-63
2022/02/23 01:04:58;;;;;;;10.57;5.60;;;;;;;;;;10535808;28;20032;-63
2022/02/23 01:09:58;;;;;;;9.87;5.50;;;;;;;;;;10535487;28;20472;-63
2022/02/23 01:14:59;;;;;;;10.40;5.57;;;;;;;;;;10535405;28;20032;-63
2022/02/23 01:19:59;;;;;;;10.00;5.38;;;;;;;;;;10535099;28;20036;-63
2022/02/23 01:25:00;;;;;;;17.92;5.95;;;;;;;;;;10534946;28;20028;-63
2022/02/23 01:30:03;;;;;;;12.75;5.57;;;;;;;;;;10534869;28;20027;-63
2022/02/23 01:35:03;;;;;;;8.40;5.50;;;;;;;;;;10535163;28;20028;-62
2022/02/23 01:40:04;;;;;;;9.30;5.57;;;;;;;;;;10535007;28;20020;-62
2022/02/23 01:45:05;;;;;;;9.25;5.78;;;;;;;;;;10534193;28;20475;-61
2022/02/23 01:50:07;;;;;;;14.00;5.95;;;;;;;;;;10534230;28;20035;-61
2022/02/23 01:55:08;;;;;;;13.45;5.88;;;;;;;;;;10534031;28;20032;-61
2022/02/23 02:00:12;;;;;;;9.95;6.07;;;;;;;;;;10532536;28;20168;-61
2022/02/23 02:05:14;;;;;;;8.00;5.40;;;;;;;;;;10534179;28;20035;-61
2022/02/23 02:10:14;;;;;;;9.88;6.05;;;;;;;;;;10534056;28;20021;-61
2022/02/23 02:15:15;;;;;;;11.45;5.78;;;;;;;;;;10533692;28;20491;-61
2022/02/23 02:20:15;;;;;;;12.87;6.10;;;;;;;;;;10533550;28;20024;-61
2022/02/23 02:25:16;;;;;;;10.63;6.03;;;;;;;;;;10533223;28;20793;-62
2022/02/23 02:30:16;;;;;;;12.20;6.45;;;;;;;;;;10533289;28;20032;-62
2022/02/23 02:35:17;;;;;;;9.13;5.37;;;;;;;;;;10533127;28;20039;-62
2022/02/23 02:40:18;;;;;;;8.45;5.88;;;;;;;;;;10533011;28;20441;-62
2022/02/23 02:45:18;;;;;;;9.20;6.17;;;;;;;;;;10532876;28;20024;-62
2022/02/23 02:50:18;;;;;;;8.63;5.78;;;;;;;;;;10532846;28;20024;-62
2022/02/23 02:55:20;;;;;;;8.30;6.17;;;;;;;;;;10532828;28;20028;-62
2022/02/23 03:00:20;;;;;;;9.63;6.22;;;;;;;;;;10532312;28;20476;-62
2022/02/23 03:05:21;;;;;;;8.52;5.45;;;;;;;;;;10532481;28;20060;-62
2022/02/23 03:10:21;;;;;;;9.20;6.30;;;;;;;;;;10532385;28;20497;-61
2022/02/23 03:15:21;;;;;;;7.43;5.80;;;;;;;;;;10532499;28;20427;-62
2022/02/23 03:20:22;;;;;;;9.20;6.67;;;;;;;;;;10532249;28;20955;-61
2022/02/23 03:25:22;;;;;;;9.32;5.97;;;;;;;;;;10532131;28;20551;-61
2022/02/23 03:30:23;;;;;;;8.13;5.75;;;;;;;;;;10536664;28;20088;-62
2022/02/23 03:35:27;;;;;;;11.00;6.30;;;;;;;;;;10539570;28;20046;-62
2022/02/23 03:40:28;;;;;;;11.00;6.47;;;;;;;;;;10539730;28;20111;-62
2022/02/23 03:45:28;;;;;;;10.80;6.85;;;;;;;;;;10538945;28;20035;-62
2022/02/23 03:50:29;;;;;;;9.07;5.88;;;;;;;;;;10538759;28;20024;-62
2022/02/23 03:55:30;;;;;;;10.38;6.15;;;;;;;;;;10539131;28;20039;-62
2022/02/23 04:00:30;;;;;;;8.65;5.95;;;;;;;;;;10536117;28;20656;-62
2022/02/23 04:05:31;;;;;;;10.87;5.80;;;;;;;;;;10536877;28;20035;-62
2022/02/23 04:10:31;;;;;;;9.02;6.63;;;;;;;;;;10538496;28;20077;-62
2022/02/23 04:15:32;;;;;;;9.40;6.47;;;;;;;;;;10537863;28;20031;-62
2022/02/23 04:20:32;;;;;;;8.45;5.97;;;;;;;;;;10537656;28;20506;-63
2022/02/23 04:25:33;;;;;;;7.70;5.40;;;;;;;;;;10537285;28;20479;-63
2022/02/23 04:30:33;;;;;;;9.32;6.35;;;;;;;;;;10537143;28;20532;-62
2022/02/23 04:35:33;;;;;;;9.07;6.57;;;;;;;;;;10537018;28;20028;-63
2022/02/23 04:40:34;;;;;;;10.25;5.97;;;;;;;;;;10536491;28;20111;-63
2022/02/23 04:45:35;;;;;;;8.95;6.07;;;;;;;;;;10536464;28;20024;-62
2022/02/23 04:50:35;;;;;;;8.63;6.25;;;;;;;;;;10536434;28;20028;-63
2022/02/23 04:55:35;;;;;;;8.85;6.35;;;;;;;;;;10536062;28;20051;-62
2022/02/23 05:00:37;;;;;;;9.98;5.75;;;;;;;;;;10535860;28;20044;-61
2022/02/23 05:05:37;;;;;;;8.48;6.07;;;;;;;;;;10535738;28;20052;-62
2022/02/23 05:10:37;;;;;;;8.85;5.88;;;;;;;;;;10536168;28;20628;-61
2022/02/23 05:15:38;;;;;;;7.13;5.97;;;;;;;;;;10535436;28;20024;-62
2022/02/23 05:20:39;;;;;;;7.68;5.55;;;;;;;;;;10535267;28;20867;-61
2022/02/23 05:25:39;;;;;;;8.13;5.87;;;;;;;;;;10534840;28;20036;-62
2022/02/23 05:30:40;;;;;;;11.38;5.90;;;;;;;;;;10535359;28;20110;-62
2022/02/23 05:35:40;;;;;;;7.57;5.78;;;;;;;;;;10534639;28;20024;-62
2022/02/23 05:40:40;;;;;;;6.97;5.40;;;;;;;;;;10534513;28;20540;-62
2022/02/23 05:45:41;;;;;;;5.85;4.68;;;;;;;;;;10534229;28;20445;-62
2022/02/23 05:50:41;;;;;;;8.82;5.93;;;;;;;;;;10533530;28;20096;-63
2022/02/23 05:55:42;;;;;;;7.45;5.32;;;;;;;;;;10533973;28;20023;-62
2022/02/23 06:00:42;;;;;;;8.32;5.40;;;;;;;;;;10533675;28;20040;-61
2022/02/23 06:05:42;;;;;;;7.80;5.73;;;;;;;;;;10533580;28;20126;-62
2022/02/23 06:10:43;;;;;;;8.37;5.57;;;;;;;;;;10530884;28;20024;-62
2022/02/23 06:15:43;;;;;;;6.57;5.10;;;;;;;;;;10534036;28;20024;-62
2022/02/23 06:20:44;;;;;;;7.03;5.10;;;;;;;;;;10534085;28;20949;-63
2022/02/23 06:25:44;;;;;;;7.53;5.37;;;;;;;;;;10533166;28;20451;-63
2022/02/23 06:30:45;;;;;;;10.27;4.73;;;;;;;;;;10533286;28;20364;-62
2022/02/23 06:35:45;;;;;;;7.78;4.50;;;;;;;;;;10530990;28;20467;-63
2022/02/23 06:40:47;;;;;;;6.40;4.77;;;;;;;;;;10533199;28;20102;-63
2022/02/23 06:45:48;;;;;;;10.43;4.35;;;;;;;;;;10531498;28;20527;-61
2022/02/23 06:50:49;;;;;;;20.05;5.47;;;;;;;;;;10532748;28;20039;-61
2022/02/23 06:55:49;;;;;;;5.82;4.30;;;;;;;;;;10532937;28;20036;-61
2022/02/23 07:00:50;;;;;;;9.98;4.63;;;;;;;;;;10532047;28;20509;-61
2022/02/23 07:05:50;;;;;;;6.22;4.95;;;;;;;;;;10539954;28;20032;-62
2022/02/23 07:10:51;;;;;;;15.27;5.73;;;;;;;;;;10539493;28;20460;-63
2022/02/23 07:15:51;;;;;;;18.13;4.40;;;;;;;;;;10539645;28;20433;-62
2022/02/23 07:20:52;;;;;;;10.70;4.50;;;;;;;;;;10539637;28;20024;-62
2022/02/23 07:25:52;;;;;;;16.50;5.28;;;;;;;;;;10537669;28;20114;-62
2022/02/23 07:30:53;;;;;;;15.13;4.72;;;;;;;;;;10538815;28;20516;-62
2022/02/23 07:35:53;;;;;;;15.18;5.28;;;;;;;;;;10539018;28;20032;-62
2022/02/23 07:40:54;;;;;;;11.00;5.20;;;;;;;;;;10538528;28;20441;-62
2022/02/23 07:45:54;;;;;;;12.67;4.50;;;;;;;;;;10537274;28;20522;-63
2022/02/23 07:50:58;;;;;;;8.10;4.88;;;;;;;;;;10538361;28;20024;-62
2022/02/23 07:55:58;;;;;;;15.23;4.80;;;;;;;;;;10538478;28;20048;-63
2022/02/23 08:00:59;;;;;;;11.20;4.50;;;;;;;;;;10538273;28;20036;-63
2022/02/23 08:05:59;;;;;;;9.50;4.30;;;;;;;;;;10537901;28;20031;-63
2022/02/23 08:11:00;;;;;;;8.77;4.57;;;;;;;;;;10537977;28;20445;-63
2022/02/23 08:21:21;;;;;;;13.00;4.85;;;;;;;;;;10537974;28;20390;-63
2022/02/23 08:26:21;;;;;;;9.98;4.88;;;;;;;;;;10536938;28;20525;-63
2022/02/23 08:31:21;;;;;;;18.05;5.38;;;;;;;;;;10536949;28;20066;-62
2022/02/23 08:36:22;;;;;;;12.03;4.90;;;;;;;;;;10532651;28;20103;-62
2022/02/23 08:41:24;;;;;;;7.67;4.20;;;;;;;;;;10536757;28;20103;-63
2022/02/23 08:46:24;;;;;;;14.10;4.78;;;;;;;;;;10534715;28;20387;-63
2022/02/23 08:51:25;;;;;;;6.90;4.10;;;;;;;;;;10535512;28;20103;-63
2022/02/23 08:56:25;;;;;;;13.17;4.40;;;;;;;;;;10536201;28;20048;-62
2022/02/23 09:01:26;;;;;;;8.68;4.43;;;;;;;;;;10534127;28;20046;-63
2022/02/23 09:06:27;;;;;;;8.18;4.55;;;;;;;;;;10535214;28;20024;-63
2022/02/23 09:11:27;;;;;;;13.05;4.88;;;;;;;;;;10535826;28;20421;-63
2022/02/23 09:16:27;;;;;;;7.03;4.70;;;;;;;;;;10534173;28;20031;-62
2022/02/23 09:21:28;;;;;;;7.50;4.53;;;;;;;;;;10533048;28;20464;-63
2022/02/23 09:26:29;;;;;;;8.70;4.57;;;;;;;;;;10533111;28;20437;-63
2022/02/23 09:31:31;;;;;;;7.72;4.43;;;;;;;;;;10533909;28;20050;-62
2022/02/23 09:36:31;;;;;;;7.13;4.07;;;;;;;;;;10533519;28;20057;-63
2022/02/23 09:41:33;;;;;;;8.07;4.35;;;;;;;;;;10532279;28;20052;-63
2022/02/23 09:46:33;;;;;;;7.28;4.20;;;;;;;;;;10526390;28;20039;-64
2022/02/23 09:51:34;;;;;;;20.45;4.97;;;;;;;;;;10532703;28;20034;-64
2022/02/23 09:56:34;;;;;;;5.77;4.00;;;;;;;;;;10533906;28;20055;-64
2022/02/23 10:01:35;;;;;;;8.07;4.22;;;;;;;;;;10533007;28;20445;-64
2022/02/23 10:06:39;;;;;;;12.32;4.00;;;;;;;;;;10531738;28;20032;-64
2022/02/23 10:11:42;;;;;;;9.00;4.28;;;;;;;;;;10532735;28;20032;-64
2022/02/23 10:16:47;;;;;;;6.28;3.97;;;;;;;;;;10532666;28;20391;-64
2022/02/23 10:21:52;;;;;;;6.05;3.97;;;;;;;;;;10533004;28;20028;-64
2022/02/23 10:27:12;;;;;;;8.18;4.28;;;;;;;;;;10533318;28;20039;-63
2022/02/23 10:32:14;;;;;;;7.22;4.00;;;;;;;;;;10533311;28;20020;-64
2022/02/23 10:37:22;;;;;;;5.63;4.03;;;;;;;;;;10534253;28;20024;-64
2022/02/23 10:42:26;;;;;;;5.72;4.07;;;;;;;;;;10541390;28;20024;-64
2022/02/23 10:47:36;;;;;;;5.35;3.40;;;;;;;;;;10541293;28;20482;-64
2022/02/23 10:52:42;;;;;;;6.10;3.72;;;;;;;;;;10541278;28;20463;-64
2022/02/23 10:57:44;;;;;;;6.60;3.60;;;;;;;;;;10539336;28;20456;-63
2022/02/23 11:02:45;;;;;;;6.85;4.10;;;;;;;;;;10539535;28;20077;-64
2022/02/23 11:07:46;;;;;;;7.47;3.63;;;;;;;;;;10538361;28;20089;-64
2022/02/23 11:12:51;;;;;;;8.03;3.57;;;;;;;;;;10537668;28;20023;-63
2022/02/23 11:17:53;;;;;;;8.15;3.80;;;;;;;;;;10540032;28;20995;-64
2022/02/23 11:22:59;;;;;;;4.88;3.38;;;;;;;;;;10540097;28;20032;-64
2022/02/23 11:28:22;;;;;;;4.60;3.28;;;;;;;;;;10539866;28;20057;-64
2022/02/23 11:33:51;;;;;;;4.60;3.80;;;;;;;;;;10539773;28;20095;-64
2022/02/23 11:38:52;;;;;;;6.37;4.23;;;;;;;;;;10539539;28;20034;-64
2022/02/23 11:44:08;;;;;;;5.78;3.92;;;;;;;;;;10538652;28;20476;-64
2022/02/23 11:49:12;;;;;;;5.57;3.75;;;;;;;;;;10536967;28;20387;-64
2022/02/23 11:54:13;;;;;;;5.35;3.10;;;;;;;;;;10538488;28;20116;-64
2022/02/23 11:59:47;;;;;;;4.38;2.80;;;;;;;;;;10537914;28;20044;-64
2022/02/23 12:04:49;;;;;;;6.60;3.70;;;;;;;;;;10502639;28;20039;-64
2022/02/23 12:09:52;;;;;;;5.65;2.97;;;;;;;;;;10536929;28;20069;-64
2022/02/23 12:14:53;;;;;;;4.75;2.97;;;;;;;;;;10536834;28;20031;-64
2022/02/23 12:19:55;;;;;;;5.72;3.20;;;;;;;;;;10536711;28;20111;-64
2022/02/23 12:24:55;;;;;;;6.78;3.08;;;;;;;;;;10536405;28;20387;-64
2022/02/23 12:29:56;;;;;;;4.03;2.90;;;;;;;;;;10536471;28;20028;-63
2022/02/23 12:34:58;;;;;;;4.93;3.25;;;;;;;;;;10535152;28;20490;-63
2022/02/23 12:39:58;;;;;;;5.20;3.03;;;;;;;;;;10536472;28;20050;-63
2022/02/23 12:45:01;;;;;;;5.78;3.10;;;;;;;;;;10535149;28;20038;-63
2022/02/23 12:50:02;;;;;;;4.10;2.97;;;;;;;;;;10536347;28;20028;-63
2022/02/23 12:55:07;;;;;;;4.05;2.75;;;;;;;;;;10537167;28;20024;-63
2022/02/23 13:00:08;;;;;;;4.63;3.05;;;;;;;;;;10556613;22;20064;-61
2022/02/23 13:05:08;;;;;;;5.35;2.92;;;;;;;;;;10540433;28;20030;-61
2022/02/23 13:10:09;;;;;;;8.87;3.00;;;;;;;;;;10535069;28;20475;-61
2022/02/23 13:15:10;;;;;;;4.28;2.85;;;;;;;;;;10535369;28;20119;-61
2022/02/23 13:20:11;;;;;;;5.63;3.03;;;;;;;;;;10535401;28;20360;-63
2022/02/23 13:25:11;;;;;;;6.10;3.33;;;;;;;;;;10533886;28;20570;-64
2022/02/23 13:30:13;;;;;;;4.97;3.10;;;;;;;;;;10533587;28;20060;-61
2022/02/23 13:35:17;;;;;;;8.17;2.90;;;;;;;;;;10533626;28;20051;-69
2022/02/23 13:40:21;;;;;;;2.58;2.28;;;;;;;;;;10533348;28;20811;-61
2022/02/23 13:45:29;;;;;;;3.72;2.80;;;;;;;;;;10533688;28;20458;-62
2022/02/23 13:50:33;;;;;;;8.17;3.27;;;;;;;;;;10530259;28;20028;-61
2022/02/23 13:55:44;;;;;;;4.40;2.70;;;;;;;;;;10527182;28;20031;-64
2022/02/23 14:00:48;;;;;;;9.30;2.90;;;;;;;;;;10532757;28;20453;-62
2022/02/23 14:05:56;;;;;;;10.05;2.90;;;;;;;;;;10532699;28;20036;-61
2022/02/23 14:10:57;;;;;;;6.53;2.95;;;;;;;;;;10532042;28;20388;-61
2022/02/23 14:16:06;;;;;;;3.58;2.63;;;;;;;;;;10528572;28;20032;-62
2022/02/23 14:21:10;;;;;;;6.50;3.03;;;;;;;;;;10531594;28;20140;-65
2022/02/23 14:26:11;;;;;;;7.10;2.45;;;;;;;;;;10528514;28;20399;-61
2022/02/23 14:31:22;;;;;;;4.50;2.20;;;;;;;;;;10530742;28;20020;-61
2022/02/23 14:36:26;;;;;;;5.07;2.78;;;;;;;;;;10530755;28;20050;-61
2022/02/23 14:41:27;;;;;;;4.70;2.67;;;;;;;;;;10531884;28;20020;-65
2022/02/23 14:46:28;;;;;;;5.50;2.47;;;;;;;;;;10532299;28;20119;-61
2022/02/23 14:51:28;;;;;;;4.60;2.70;;;;;;;;;;10530601;28;20314;-61
2022/02/23 14:56:29;;;;;;;6.68;2.40;;;;;;;;;;10530645;28;20039;-61
2022/02/23 15:01:29;;;;;;;4.15;2.60;;;;;;;;;;10532072;28;20039;-61
2022/02/23 15:06:29;;;;;;;5.23;2.87;;;;;;;;;;10532027;28;20399;-61
2022/02/23 15:11:30;;;;;;;5.10;2.65;;;;;;;;;;10530276;28;20671;-61
2022/02/23 15:16:30;;;;;;;2.77;2.30;;;;;;;;;;10529840;28;20481;-70
2022/02/23 15:21:31;;;;;;;4.15;2.42;;;;;;;;;;10532333;28;20024;-70
2022/02/23 15:26:31;;;;;;;4.03;2.47;;;;;;;;;;10538314;28;20047;-61
2022/02/23 15:31:32;;;;;;;5.40;2.10;;;;;;;;;;10539409;28;20506;-61
2022/02/23 15:36:32;;;;;;;8.45;2.10;;;;;;;;;;10538477;28;20449;-60
2022/02/23 15:41:33;;;;;;;3.80;2.17;;;;;;;;;;10538211;28;20027;-61
2022/02/23 15:46:34;;;;;;;4.63;2.25;;;;;;;;;;10537499;28;20483;-61
2022/02/23 15:51:35;;;;;;;4.32;2.15;;;;;;;;;;10534448;28;20208;-64
2022/02/23 15:56:35;;;;;;;4.85;2.08;;;;;;;;;;10535753;28;20510;-61
2022/02/23 16:01:36;;;;;;;3.63;2.15;;;;;;;;;;10538270;28;20024;-63
2022/02/23 16:06:36;;;;;;;3.43;2.33;;;;;;;;;;10537279;28;20027;-60
2022/02/23 16:11:37;;;;;;;4.90;2.58;;;;;;;;;;10537072;28;20512;-62
2022/02/23 16:16:37;;;;;;;4.18;2.33;;;;;;;;;;10535308;28;20032;-61
2022/02/23 16:21:37;;;;;;;2.60;2.17;;;;;;;;;;10536159;28;20450;-61
2022/02/23 16:26:38;;;;;;;3.47;2.30;;;;;;;;;;10536612;28;20461;-62
2022/02/23 16:31:39;;;;;;;2.83;2.20;;;;;;;;;;10536456;28;20019;-67
2022/02/23 16:36:40;;;;;;;3.95;2.13;;;;;;;;;;10534347;28;20065;-61
2022/02/23 16:41:40;;;;;;;5.07;2.13;;;;;;;;;;10534668;28;20044;-64
2022/02/23 16:46:43;;;;;;;5.30;2.15;;;;;;;;;;10535991;28;20028;-61
2022/02/23 16:51:44;;;;;;;3.50;2.08;;;;;;;;;;10536062;28;20147;-61
2022/02/23 16:56:44;;;;;;;2.38;2.00;;;;;;;;;;10535515;28;20060;-61
2022/02/23 17:01:45;;;;;;;2.17;1.95;;;;;;;;;;10535777;28;20487;-61
2022/02/23 17:06:47;;;;;;;3.45;2.13;;;;;;;;;;10534605;28;20031;-63
2022/02/23 17:11:47;;;;;;;5.20;2.08;;;;;;;;;;10533091;28;20076;-61
2022/02/23 17:16:50;;;;;;;4.83;2.20;;;;;;;;;;10534518;28;20454;-62
2022/02/23 17:21:50;;;;;;;2.72;1.63;;;;;;;;;;10533739;28;20436;-62
2022/02/23 17:26:51;;;;;;;3.00;2.33;;;;;;;;;;10532587;28;20088;-61
2022/02/23 17:31:52;;;;;;;5.07;2.17;;;;;;;;;;10533564;28;20016;-61
2022/02/23 17:36:53;;;;;;;4.07;2.13;;;;;;;;;;10530659;28;20053;-62
2022/02/23 17:41:53;;;;;;;5.05;2.30;;;;;;;;;;10532933;28;20056;-61
2022/02/23 17:46:54;;;;;;;7.13;2.20;;;;;;;;;;10532460;28;20103;-62
2022/02/23 17:51:54;;;;;;;3.00;2.40;;;;;;;;;;10533037;28;20761;-68
2022/02/23 17:56:54;;;;;;;2.80;2.37;;;;;;;;;;10532553;28;20472;-66
2022/02/23 18:01:56;;;;;;;9.03;2.80;;;;;;;;;;10533764;28;20062;-64
2022/02/23 18:06:56;;;;;;;5.07;2.67;;;;;;;;;;10531992;28;20032;-64
2022/02/23 18:11:57;;;;;;;4.37;2.63;;;;;;;;;;10533316;28;20030;-63
2022/02/23 18:16:58;;;;;;;11.95;3.10;;;;;;;;;;10530842;28;20854;-63
2022/02/23 18:21:58;;;;;;;7.25;2.58;;;;;;;;;;10532558;28;20020;-68
2022/02/23 18:26:59;;;;;;;6.55;2.70;;;;;;;;;;10548027;28;20028;-62
2022/02/23 18:31:59;;;;;;;4.07;2.60;;;;;;;;;;10533092;28;20024;-61
2022/02/23 18:37:00;;;;;;;6.18;3.17;;;;;;;;;;10531386;28;20452;-65
2022/02/23 18:42:00;;;;;;;7.47;2.97;;;;;;;;;;10529985;28;20020;-62
2022/02/23 18:47:01;;;;;;;8.55;3.05;;;;;;;;;;10528598;28;20089;-63
2022/02/23 18:52:02;;;;;;;7.25;3.10;;;;;;;;;;10530760;28;20035;-70
2022/02/23 18:57:03;;;;;;;11.07;3.28;;;;;;;;;;10529697;28;20066;-67
2022/02/23 19:02:05;;;;;;;19.23;4.90;;;;;;;;;;10538444;28;20452;-67
2022/02/23 19:07:08;;;;;;;13.55;3.90;;;;;;;;;;10539832;28;20052;-67
2022/02/23 19:12:08;;;;;;;12.30;3.72;;;;;;;;;;10540115;28;20102;-67
2022/02/23 19:17:11;;;;;;;10.43;3.25;;;;;;;;;;10539288;28;20089;-64
2022/02/23 19:22:11;;;;;;;9.45;3.72;;;;;;;;;;10538936;28;20433;-65
2022/02/23 19:27:12;;;;;;;14.52;3.53;;;;;;;;;;10539198;28;20028;-66
2022/02/23 19:32:12;;;;;;;15.63;3.93;;;;;;;;;;10535057;28;20366;-66
2022/02/23 19:37:13;;;;;;;22.43;4.60;;;;;;;;;;10535720;28;20539;-64
2022/02/23 19:42:13;;;;;;;21.08;3.80;;;;;;;;;;10536985;28;20454;-65
2022/02/23 19:47:13;;;;;;;15.57;3.57;;;;;;;;;;10536120;28;20115;-65
2022/02/23 19:52:14;;;;;;;13.20;4.97;;;;;;;;;;10537322;28;20485;-68
2022/02/23 19:57:14;;;;;;;11.63;3.73;;;;;;;;;;10536796;28;20055;-68
2022/02/23 20:02:15;;;;;;;9.27;3.50;;;;;;;;;;10535741;28;20467;-64
2022/02/23 20:07:15;;;;;;;9.27;3.87;;;;;;;;;;10535694;28;20039;-64
2022/02/23 20:12:16;;;;;;;9.67;3.67;;;;;;;;;;10534089;28;20743;-65
2022/02/23 20:17:16;;;;;;;10.40;4.10;;;;;;;;;;10535595;28;20453;-65
2022/02/23 20:22:17;;;;;;;10.27;3.43;;;;;;;;;;10535362;28;20031;-65
2022/02/23 20:27:18;;;;;;;10.07;3.97;;;;;;;;;;10533225;28;20440;-65
2022/02/23 20:32:18;;;;;;;13.15;3.60;;;;;;;;;;10536353;28;20046;-68
2022/02/23 20:37:19;;;;;;;11.07;4.37;;;;;;;;;;10534959;28;20028;-68
2022/02/23 20:42:19;;;;;;;9.05;3.50;;;;;;;;;;10535599;28;20463;-71
2022/02/23 20:47:20;;;;;;;8.07;3.20;;;;;;;;;;10534459;28;20028;-68
2022/02/23 20:52:25;;;;;;;11.63;3.42;;;;;;;;;;10534983;28;20521;-67
2022/02/23 20:57:26;;;;;;;11.18;3.05;;;;;;;;;;10531815;28;20189;-68
2022/02/23 21:02:26;;;;;;;8.45;3.45;;;;;;;;;;10533340;28;20107;-68
2022/02/23 21:07:27;;;;;;;7.43;3.50;;;;;;;;;;10535491;28;20024;-67
2022/02/23 21:12:27;;;;;;;9.80;3.33;;;;;;;;;;10535278;28;20111;-67
2022/02/23 21:17:29;;;;;;;6.65;3.50;;;;;;;;;;10535092;28;20035;-66
2022/02/23 21:22:30;;;;;;;8.75;3.47;;;;;;;;;;10531262;28;20111;-62
2022/02/23 21:27:30;;;;;;;6.78;3.05;;;;;;;;;;10531156;28;20307;-64
2022/02/23 21:32:31;;;;;;;5.70;2.97;;;;;;;;;;10534109;28;20036;-66
2022/02/23 21:37:31;;;;;;;9.70;3.55;;;;;;;;;;10532655;28;20869;-66
2022/02/23 21:42:32;;;;;;;7.72;3.20;;;;;;;;;;10533548;28;20060;-65
2022/02/23 21:47:32;;;;;;;7.63;3.22;;;;;;;;;;10533746;28;20027;-66
2022/02/23 21:52:33;;;;;;;13.43;4.00;;;;;;;;;;10534093;28;20388;-68
2022/02/23 21:57:34;;;;;;;7.38;3.30;;;;;;;;;;10533153;28;20516;-69
2022/02/23 22:02:34;;;;;;;9.30;3.50;;;;;;;;;;10532932;28;20111;-66
2022/02/23 22:07:35;;;;;;;5.63;3.25;;;;;;;;;;10514820;28;20472;-69
2022/02/23 22:12:36;;;;;;;8.18;3.40;;;;;;;;;;10531437;28;20077;-66
2022/02/23 22:17:36;;;;;;;8.70;3.30;;;;;;;;;;10532574;28;20078;-66
2022/02/23 22:22:37;;;;;;;10.67;3.63;;;;;;;;;;10532123;28;20051;-63
2022/02/23 22:27:37;;;;;;;6.73;3.30;;;;;;;;;;10527756;28;20532;-63
2022/02/23 22:32:37;;;;;;;6.43;3.23;;;;;;;;;;10531562;28;20527;-68
2022/02/23 22:37:38;;;;;;;7.13;3.60;;;;;;;;;;10537397;28;20544;-64
2022/02/23 22:42:38;;;;;;;8.73;4.30;;;;;;;;;;10538020;28;20785;-65
2022/02/23 22:47:39;;;;;;;9.00;3.45;;;;;;;;;;10540367;28;20445;-65
2022/02/23 22:52:40;;;;;;;11.52;3.78;;;;;;;;;;10538611;28;20081;-69
2022/02/23 22:57:41;;;;;;;5.93;3.55;;;;;;;;;;10538970;28;20063;-73
2022/02/23 23:02:42;;;;;;;12.73;4.28;;;;;;;;;;10539523;28;20024;-68
2022/02/23 23:07:43;;;;;;;15.07;3.30;;;;;;;;;;10539354;28;20521;-68
2022/02/23 23:12:43;;;;;;;8.32;3.50;;;;;;;;;;10538696;28;20036;-67
2022/02/23 23:17:44;;;;;;;11.60;3.40;;;;;;;;;;10538857;28;20024;-74
2022/02/23 23:22:44;;;;;;;14.87;3.50;;;;;;;;;;10538904;28;20043;-71
2022/02/23 23:27:44;;;;;;;10.00;3.75;;;;;;;;;;10537673;28;20028;-68
2022/02/23 23:32:45;;;;;;;9.83;3.30;;;;;;;;;;10539083;28;20357;-68
2022/02/23 23:37:45;;;;;;;7.47;3.63;;;;;;;;;;10535198;28;20539;-68
2022/02/23 23:42:48;;;;;;;10.73;3.60;;;;;;;;;;10538519;28;20024;-67
2022/02/23 23:47:48;;;;;;;9.13;3.25;;;;;;;;;;10533750;28;20032;-68
2022/02/23 23:52:49;;;;;;;5.50;3.30;;;;;;;;;;10538322;28;20031;-68
2022/02/23 23:57:49;;;;;;;7.47;3.50;;;;;;;;;;10537765;28;20395;-69
